DRZA/AJY METAR and TAF weather

Enter ICAO airport designator
Station Type Date Time Source
DRZA METAR 2018/12/10 17:00 UTC NOAA

DRZA 101700Z 12010KT CAVOK 25/M03 Q1018


Station Type Date Time Source
DRZA Decoded METAR 2018/12/10 17:00 UTC NOAA

Agadez, Niger (DRZA) 16-58N 007-59E 502M
Dec 10, 2018 - 12:00 PM EST / 2018.12.10 1700 UTC
Wind: from the ESE (120 degrees) at 12 MPH (10 KT):0
Visibility: greater than 7 mile(s):0
Temperature: 77 F (25 C)
Dew Point: 26 F (-3 C)
Relative Humidity: 15%
Pressure (altimeter): 30.06 in. Hg (1018 hPa)
ob: DRZA 101700Z 12010KT CAVOK 25/M03 Q1018
cycle: 17

Station Type Date Time Source
DRZA TAF 2018/12/10 18:30 UTC NOAA

TAF DRZA 101700Z 1018/1118 10012KT 8000 NSC


Example: see airport list